Ubc Savannah — P3UW8 — position and weather

sailwx.info

Track history (hours):
 
Tides and Currents Weather Stations Pressure Air Temp Water Temp Dewpoint Dewpoint Depression Visibility Wind Speed Wind Dir Waves Ship Positions

Ubc Savannah

Last reported at 2018-May-24 01:11 UTC. Time now 2018-Jun-19 17:47 UTC.
Position N 09°13' W 079°55'.
Warning: this ship's position is 26 days out of date.

Length 172 m; draft 9.7 m.

Type: Cargo ship. MMSI: 209289000.

Date/timePositionNaut miles runAvg speedWind from/ knotsBaromVisibWave heightAir tempDewpointWater temp
2018-May-24 01:11N 09°13' W 079°55'4 6.0
2018-May-24 00:36N 09°16' W 079°55'0 1.2
2018-May-24 00:29N 09°16' W 079°55'0 0.5
2018-May-23 23:53N 09°17' W 079°55'0 0.6
2018-May-23 23:23N 09°17' W 079°55'1 1.5
2018-May-23 23:00N 09°17' W 079°55'2 3.9
2018-May-23 22:30N 09°19' W 079°55'3 5.7
2018-May-23 22:00N 09°22' W 079°56'0 0.7
2018-May-23 21:29N 09°22' W 079°56'0 0.0
2018-May-23 20:59N 09°22' W 079°56'0 0.0
2018-May-23 20:29N 09°22' W 079°56'0 0.0
2018-May-23 19:59N 09°22' W 079°56'0 0.0
2018-May-23 19:29N 09°22' W 079°56'0 0.0
2018-May-23 18:59N 09°22' W 079°56'0 0.1
2018-May-23 18:29N 09°22' W 079°56'0 0.1
2018-May-23 17:59N 09°22' W 079°56'0 0.0
2018-May-23 17:29N 09°22' W 079°56'0 0.0
2018-May-23 16:56N 09°22' W 079°56'0 0.0
2018-May-23 16:29N 09°22' W 079°56'0 0.1
2018-May-23 15:59N 09°22' W 079°56'0 0.1
2018-May-23 15:29N 09°22' W 079°56'0 0.1
2018-May-23 14:59N 09°22' W 079°56'0 0.0
2018-May-23 14:29N 09°22' W 079°56'0 0.1
2018-May-23 13:59N 09°22' W 079°56'0 0.0
2018-May-23 13:29N 09°22' W 079°56'0 0.0
2018-May-23 12:56N 09°22' W 079°56'0 0.1
2018-May-23 12:29N 09°22' W 079°56'0 0.0
2018-May-23 11:59N 09°22' W 079°56'0 0.0
2018-May-23 11:26N 09°22' W 079°56'0 0.0
2018-May-23 10:59N 09°22' W 079°56'0 0.0
2018-May-23 10:26N 09°22' W 079°56'0 0.0
2018-May-23 09:59N 09°22' W 079°56'0 0.0
2018-May-23 09:26N 09°22' W 079°56'0 0.0
2018-May-23 08:59N 09°22' W 079°56'0 0.0
2018-May-23 08:29N 09°22' W 079°56'0 0.0
2018-May-23 07:59N 09°22' W 079°56'0 0.0
2018-May-23 07:29N 09°22' W 079°56'0 0.0
2018-May-23 06:59N 09°22' W 079°56'0 0.0
2018-May-23 06:29N 09°22' W 079°56'0 0.0
2018-May-23 05:59N 09°22' W 079°56'0 0.0
2018-May-23 05:29N 09°22' W 079°56'0 0.0
2018-May-23 04:59N 09°22' W 079°56'0 0.0
2018-May-23 04:29N 09°22' W 079°56'0 0.0
2018-May-23 03:59N 09°22' W 079°56'0 0.0
2018-May-23 03:29N 09°22' W 079°56'0 0.0
2018-May-23 02:59N 09°22' W 079°56'0 0.0
2018-May-23 02:29N 09°22' W 079°56'0 0.0
2018-May-23 01:59N 09°22' W 079°56'0 0.0
2018-May-23 01:29N 09°22' W 079°56'0 0.0
2018-May-23 00:59N 09°22' W 079°56'0 0.0
2018-May-23 00:29N 09°22' W 079°56'0 0.1
2018-May-22 23:59N 09°22' W 079°56'0 0.6
2018-May-22 23:30N 09°22' W 079°56'3 5.6
2018-May-22 23:00N 09°25' W 079°55'2 3.4
2018-May-22 22:30N 09°26' W 079°57'0 0.0
2018-May-22 22:00N 09°26' W 079°57'0 0.1
2018-May-22 21:30N 09°26' W 079°57'0 0.1
2018-May-22 21:00N 09°26' W 079°57'0 0.0
2018-May-22 20:30N 09°26' W 079°57'0 0.1
2018-May-22 20:00N 09°26' W 079°57'0 0.1
2018-May-22 19:30N 09°26' W 079°57'0 0.1
2018-May-22 18:57N 09°26' W 079°57'0 0.1
2018-May-22 18:30N 09°26' W 079°57'0 0.0
2018-May-22 18:00N 09°26' W 079°57'0 0.0
2018-May-22 17:30N 09°26' W 079°57'0 0.1
2018-May-22 17:00N 09°26' W 079°57'0 0.0
2018-May-22 16:30N 09°26' W 079°57'0 0.0
2018-May-22 16:00N 09°26' W 079°57'0 0.0
2018-May-22 15:30N 09°26' W 079°57'0 0.0
2018-May-22 15:00N 09°26' W 079°57'0 0.0
2018-May-22 14:18N 09°26' W 079°57'0 0.0
2018-May-22 14:00N 09°26' W 079°57'0 0.0
2018-May-22 13:30N 09°26' W 079°57'0 0.0
2018-May-22 12:57N 09°26' W 079°57'0 0.0
2018-May-22 12:30N 09°26' W 079°57'0 0.0
2018-May-22 12:00N 09°26' W 079°57'0 0.0
2018-May-22 11:27N 09°26' W 079°57'0 0.0
2018-May-22 10:54N 09°26' W 079°57'0 0.0
2018-May-22 10:30N 09°26' W 079°57'0 0.0
2018-May-22 10:00N 09°26' W 079°57'0 0.0
2018-May-22 09:30N 09°26' W 079°57'0 0.0
2018-May-22 09:00N 09°26' W 079°57'0 0.0
2018-May-22 08:30N 09°26' W 079°57'0 0.0
2018-May-22 08:00N 09°26' W 079°57'0 0.1
2018-May-22 07:30N 09°26' W 079°57'0 0.1
2018-May-22 07:00N 09°26' W 079°56'0 0.1
2018-May-22 06:30N 09°26' W 079°56'2 4.5
2018-May-22 06:00N 09°28' W 079°55'610.6
2018-May-22 05:28N 09°33' W 079°52'  
Track history (hours):
 
Tides and Currents Weather Stations Pressure Air Temp Water Temp Dewpoint Dewpoint Depression Visibility Wind Speed Wind Dir Waves Ship Positions

Ubc Savannah

Last reported at 2018-May-24 01:11 UTC. Time now 2018-Jun-19 17:47 UTC.
Position N 09°13' W 079°55'.
Warning: this ship's position is 26 days out of date.

Length 172 m; draft 9.7 m.

Type: Cargo ship. MMSI: 209289000.

Date/timePositionNaut miles runAvg speedWind from/ knotsBaromVisibWave heightAir tempDewpointWater temp
2018-May-24 01:11N 09°13' W 079°55'4 6.0
2018-May-24 00:36N 09°16' W 079°55'0 1.2
2018-May-24 00:29N 09°16' W 079°55'0 0.5
2018-May-23 23:53N 09°17' W 079°55'0 0.6
2018-May-23 23:23N 09°17' W 079°55'1 1.5
2018-May-23 23:00N 09°17' W 079°55'2 3.9
2018-May-23 22:30N 09°19' W 079°55'3 5.7
2018-May-23 22:00N 09°22' W 079°56'0 0.7
2018-May-23 21:29N 09°22' W 079°56'0 0.0
2018-May-23 20:59N 09°22' W 079°56'0 0.0
2018-May-23 20:29N 09°22' W 079°56'0 0.0
2018-May-23 19:59N 09°22' W 079°56'0 0.0
2018-May-23 19:29N 09°22' W 079°56'0 0.0
2018-May-23 18:59N 09°22' W 079°56'0 0.1
2018-May-23 18:29N 09°22' W 079°56'0 0.1
2018-May-23 17:59N 09°22' W 079°56'0 0.0
2018-May-23 17:29N 09°22' W 079°56'0 0.0
2018-May-23 16:56N 09°22' W 079°56'0 0.0
2018-May-23 16:29N 09°22' W 079°56'0 0.1
2018-May-23 15:59N 09°22' W 079°56'0 0.1
2018-May-23 15:29N 09°22' W 079°56'0 0.1
2018-May-23 14:59N 09°22' W 079°56'0 0.0
2018-May-23 14:29N 09°22' W 079°56'0 0.1
2018-May-23 13:59N 09°22' W 079°56'0 0.0
2018-May-23 13:29N 09°22' W 079°56'0 0.0
2018-May-23 12:56N 09°22' W 079°56'0 0.1
2018-May-23 12:29N 09°22' W 079°56'0 0.0
2018-May-23 11:59N 09°22' W 079°56'0 0.0
2018-May-23 11:26N 09°22' W 079°56'0 0.0
2018-May-23 10:59N 09°22' W 079°56'0 0.0
2018-May-23 10:26N 09°22' W 079°56'0 0.0
2018-May-23 09:59N 09°22' W 079°56'0 0.0
2018-May-23 09:26N 09°22' W 079°56'0 0.0
2018-May-23 08:59N 09°22' W 079°56'0 0.0
2018-May-23 08:29N 09°22' W 079°56'0 0.0
2018-May-23 07:59N 09°22' W 079°56'0 0.0
2018-May-23 07:29N 09°22' W 079°56'0 0.0
2018-May-23 06:59N 09°22' W 079°56'0 0.0
2018-May-23 06:29N 09°22' W 079°56'0 0.0
2018-May-23 05:59N 09°22' W 079°56'0 0.0
2018-May-23 05:29N 09°22' W 079°56'0 0.0
2018-May-23 04:59N 09°22' W 079°56'0 0.0
2018-May-23 04:29N 09°22' W 079°56'0 0.0
2018-May-23 03:59N 09°22' W 079°56'0 0.0
2018-May-23 03:29N 09°22' W 079°56'0 0.0
2018-May-23 02:59N 09°22' W 079°56'0 0.0
2018-May-23 02:29N 09°22' W 079°56'0 0.0
2018-May-23 01:59N 09°22' W 079°56'0 0.0
2018-May-23 01:29N 09°22' W 079°56'0 0.0
2018-May-23 00:59N 09°22' W 079°56'0 0.0
2018-May-23 00:29N 09°22' W 079°56'0 0.1
2018-May-22 23:59N 09°22' W 079°56'0 0.6
2018-May-22 23:30N 09°22' W 079°56'3 5.6
2018-May-22 23:00N 09°25' W 079°55'2 3.4
2018-May-22 22:30N 09°26' W 079°57'0 0.0
2018-May-22 22:00N 09°26' W 079°57'0 0.1
2018-May-22 21:30N 09°26' W 079°57'0 0.1
2018-May-22 21:00N 09°26' W 079°57'0 0.0
2018-May-22 20:30N 09°26' W 079°57'0 0.1
2018-May-22 20:00N 09°26' W 079°57'0 0.1
2018-May-22 19:30N 09°26' W 079°57'0 0.1
2018-May-22 18:57N 09°26' W 079°57'0 0.1
2018-May-22 18:30N 09°26' W 079°57'0 0.0
2018-May-22 18:00N 09°26' W 079°57'0 0.0
2018-May-22 17:30N 09°26' W 079°57'0 0.1
2018-May-22 17:00N 09°26' W 079°57'0 0.0
2018-May-22 16:30N 09°26' W 079°57'0 0.0
2018-May-22 16:00N 09°26' W 079°57'0 0.0
2018-May-22 15:30N 09°26' W 079°57'0 0.0
2018-May-22 15:00N 09°26' W 079°57'0 0.0
2018-May-22 14:18N 09°26' W 079°57'0 0.0
2018-May-22 14:00N 09°26' W 079°57'0 0.0
2018-May-22 13:30N 09°26' W 079°57'0 0.0
2018-May-22 12:57N 09°26' W 079°57'0 0.0
2018-May-22 12:30N 09°26' W 079°57'0 0.0
2018-May-22 12:00N 09°26' W 079°57'0 0.0
2018-May-22 11:27N 09°26' W 079°57'0 0.0
2018-May-22 10:54N 09°26' W 079°57'0 0.0
2018-May-22 10:30N 09°26' W 079°57'0 0.0
2018-May-22 10:00N 09°26' W 079°57'0 0.0
2018-May-22 09:30N 09°26' W 079°57'0 0.0
2018-May-22 09:00N 09°26' W 079°57'0 0.0
2018-May-22 08:30N 09°26' W 079°57'0 0.0
2018-May-22 08:00N 09°26' W 079°57'0 0.1
2018-May-22 07:30N 09°26' W 079°57'0 0.1
2018-May-22 07:00N 09°26' W 079°56'0 0.1
2018-May-22 06:30N 09°26' W 079°56'2 4.5
2018-May-22 06:00N 09°28' W 079°55'610.6
2018-May-22 05:28N 09°33' W 079°52'  

Dump ship's entire track history